Time;durP1;ratioP1;P1;durP2;ratioP2;P2;SDS_P1;SDS_P2;PMS_P1;PMS_P2;Temp;Humidity;BMP_temperature;BMP_pressure;BME280_temperature;BME280_humidity;BME280_pressure;Samples;Min_cycle;Max_cycle;Signal;HPM_P1;HPM_P2
2023/09/02 00:05:16;;;;;;;1.00;0.90;;;;;;;20.97;79.13;101443.66;21118058;28;20384;-59
2023/09/02 00:15:17;;;;;;;1.77;1.00;;;;;;;20.96;78.91;101441.94;21084201;28;20075;-59
2023/09/02 00:25:22;;;;;;;1.65;1.35;;;;;;;20.93;78.58;101434.13;21134097;28;20113;-59
2023/09/02 00:35:24;;;;;;;0.95;0.90;;;;;;;20.84;78.32;101431.28;21139803;28;20113;-59
2023/09/02 00:45:25;;;;;;;1.30;0.80;;;;;;;20.81;78.31;101445.09;21124573;28;20055;-59
2023/09/02 00:55:27;;;;;;;1.10;1.00;;;;;;;20.79;78.27;101451.66;21104303;28;20040;-59
2023/09/02 01:05:29;;;;;;;1.10;1.00;;;;;;;20.77;78.19;101462.59;21060235;28;20048;-59
2023/09/02 01:15:32;;;;;;;0.88;0.75;;;;;;;20.75;78.35;101461.00;21072870;28;20587;-59
2023/09/02 01:25:59;;;;;;;1.13;1.00;;;;;;;20.73;78.04;101458.47;21073164;28;20055;-59
2023/09/02 01:36:03;;;;;;;1.17;1.08;;;;;;;20.71;78.04;101466.69;21105121;28;20051;-59
2023/09/02 01:46:06;;;;;;;0.82;0.82;;;;;;;20.70;77.95;101473.09;21102269;28;20063;-59
2023/09/02 01:56:08;;;;;;;2.50;1.13;;;;;;;20.68;77.94;101467.00;21101402;28;20048;-59
2023/09/02 02:06:11;;;;;;;4.03;1.00;;;;;;;20.68;77.84;101483.22;21112523;28;20059;-59
2023/09/02 02:16:14;;;;;;;1.13;0.98;;;;;;;20.65;77.69;101475.38;21107016;28;20105;-59
2023/09/02 02:26:16;;;;;;;0.93;0.82;;;;;;;20.69;77.61;101474.09;21134729;28;20097;-59
2023/09/02 02:36:18;;;;;;;1.00;0.90;;;;;;;20.73;77.50;101469.28;21085141;28;20105;-59
2023/09/02 02:46:19;;;;;;;1.20;1.10;;;;;;;20.75;77.27;101482.66;21083529;28;20055;-59
2023/09/02 02:56:21;;;;;;;1.63;1.25;;;;;;;20.73;77.20;101480.94;21083691;28;20040;-60
2023/09/02 03:06:23;;;;;;;1.15;1.05;;;;;;;20.73;77.17;101480.94;21082715;28;20056;-59
2023/09/02 03:16:25;;;;;;;1.10;1.10;;;;;;;20.71;77.22;101488.34;21082056;28;20132;-59
2023/09/02 03:26:27;;;;;;;1.30;1.20;;;;;;;20.70;77.21;101486.63;21079932;28;20060;-59
2023/09/02 03:36:31;;;;;;;1.13;1.02;;;;;;;20.67;76.94;101475.25;21077596;28;20066;-59
2023/09/02 03:46:33;;;;;;;1.02;0.93;;;;;;;20.67;76.91;101472.56;21094913;28;20492;-59
2023/09/02 03:56:39;;;;;;;1.25;1.13;;;;;;;20.66;76.90;101501.44;21076781;28;20480;-59
2023/09/02 04:06:41;;;;;;;1.60;1.10;;;;;;;20.64;76.74;101498.03;21075784;28;20451;-59
2023/09/02 04:16:42;;;;;;;1.25;1.15;;;;;;;20.63;76.80;101512.53;21075896;28;20079;-59
2023/09/02 04:26:45;;;;;;;1.23;1.13;;;;;;;20.63;76.77;101504.44;21074584;28;20458;-59
2023/09/02 04:36:47;;;;;;;0.98;0.98;;;;;;;20.62;76.89;101510.00;21075084;28;20040;-59
2023/09/02 04:46:49;;;;;;;1.63;1.52;;;;;;;20.60;76.88;101531.75;21071775;28;20113;-59
2023/09/02 04:56:51;;;;;;;1.30;1.20;;;;;;;20.59;76.95;101532.75;21072453;28;20044;-59
2023/09/02 05:06:53;;;;;;;1.20;1.10;;;;;;;20.58;76.93;101552.69;21071946;28;20381;-59
2023/09/02 05:16:55;;;;;;;1.20;1.10;;;;;;;20.58;77.07;101560.81;21071890;28;20052;-59
2023/09/02 05:26:56;;;;;;;1.83;1.50;;;;;;;20.58;77.02;101568.91;21070858;28;20098;-59
2023/09/02 05:36:59;;;;;;;1.50;1.40;;;;;;;20.55;77.10;101575.47;21070556;28;20052;-59
2023/09/02 05:47:01;;;;;;;1.42;1.30;;;;;;;20.52;77.15;101585.69;21069623;28;20119;-59
2023/09/02 05:57:03;;;;;;;1.65;1.55;;;;;;;20.51;77.28;101587.53;21079037;28;20048;-59
2023/09/02 06:07:05;;;;;;;2.08;1.40;;;;;;;20.50;77.48;101593.09;21086757;28;20551;-59
2023/09/02 06:17:08;;;;;;;1.60;1.50;;;;;;;20.45;77.90;101589.97;21087296;28;20044;-59
2023/09/02 06:27:10;;;;;;;1.90;1.58;;;;;;;20.47;78.22;101604.19;21085985;28;20365;-59
2023/09/02 06:37:12;;;;;;;1.60;1.50;;;;;;;20.45;78.45;101625.13;21102679;28;20055;-59
2023/09/02 06:47:14;;;;;;;2.35;1.75;;;;;;;20.45;78.74;101647.59;21111159;28;20508;-59
2023/09/02 06:57:16;;;;;;;2.25;1.92;;;;;;;20.46;78.75;101651.16;21096292;28;20457;-59
2023/09/02 07:07:17;;;;;;;1.77;1.67;;;;;;;20.47;79.13;101663.69;21075146;28;20048;-59
2023/09/02 07:17:20;;;;;;;2.92;2.03;;;;;;;20.48;79.35;101668.94;21079060;28;20051;-59
2023/09/02 07:27:21;;;;;;;1.65;1.50;;;;;;;20.49;79.31;101673.38;21094441;28;20052;-59
2023/09/02 07:37:23;;;;;;;1.50;1.40;;;;;;;20.53;79.42;101679.38;21059850;28;20059;-59
2023/09/02 07:47:25;;;;;;;2.20;1.73;;;;;;;20.57;79.54;101697.94;21116530;28;20057;-59
2023/09/02 07:57:30;;;;;;;3.60;1.70;;;;;;;20.58;79.70;101706.88;21070774;28;20579;-59
2023/09/02 08:07:32;;;;;;;2.25;2.05;;;;;;;20.55;80.40;101737.78;21105478;28;20487;-66
2023/09/02 08:17:39;;;;;;;5.68;3.20;;;;;;;20.55;81.13;101740.50;21083200;28;20051;-66
2023/09/02 08:27:46;;;;;;;3.08;2.58;;;;;;;20.55;81.57;101739.63;21138199;28;20380;-65
2023/09/02 08:37:47;;;;;;;3.53;2.10;;;;;;;20.56;81.81;101754.84;21151801;28;20048;-65
2023/09/02 08:47:54;;;;;;;3.53;2.25;;;;;;;20.58;82.18;101758.28;21093999;28;20043;-65
2023/09/02 08:57:56;;;;;;;4.75;2.50;;;;;;;20.62;82.25;101781.38;21096014;28;20077;-65
2023/09/02 09:07:59;;;;;;;3.80;2.30;;;;;;;20.67;82.62;101778.28;21070170;28;20135;-65
2023/09/02 09:18:03;;;;;;;2.75;2.33;;;;;;;20.71;82.63;101799.50;21118663;28;20050;-66
2023/09/02 09:28:09;;;;;;;4.20;2.37;;;;;;;20.78;82.77;101804.41;21081764;28;20059;-66
2023/09/02 09:38:12;;;;;;;4.45;2.65;;;;;;;20.84;82.83;101818.28;21091137;28;20048;-65
2023/09/02 09:48:14;;;;;;;5.93;3.33;;;;;;;20.91;82.80;101823.16;21095998;28;20524;-66
2023/09/02 09:58:23;;;;;;;4.22;2.78;;;;;;;20.94;82.54;101837.28;21105610;28;20051;-65
2023/09/02 10:08:24;;;;;;;4.75;2.53;;;;;;;20.93;82.44;101840.97;21103994;28;20047;-66
2023/09/02 10:18:28;;;;;;;3.00;2.10;;;;;;;20.96;82.46;101854.25;21088796;28;20092;-66
2023/09/02 10:28:40;;;;;;;3.03;2.17;;;;;;;21.04;82.54;101855.41;21108650;28;20047;-66
2023/09/02 10:38:44;;;;;;;3.50;2.50;;;;;;;21.15;82.35;101856.22;21066515;28;20037;-66
2023/09/02 10:48:46;;;;;;;;;;;;;;;21.25;82.38;101877.94;21112253;28;20051;-65
2023/09/02 10:58:48;;;;;;;2.60;2.03;;;;;;;21.30;81.90;101872.09;21076438;28;20030;-65
2023/09/02 11:08:51;;;;;;;2.53;1.80;;;;;;;21.36;81.90;101868.00;21095437;28;20058;-66
2023/09/02 11:18:53;;;;;;;3.80;2.00;;;;;;;21.43;81.88;101866.44;21085756;28;20047;-65
2023/09/02 11:28:55;;;;;;;2.55;2.00;;;;;;;21.49;81.86;101868.59;21089857;28;20124;-65
2023/09/02 11:38:57;;;;;;;2.08;1.48;;;;;;;21.55;81.69;101887.03;21100728;28;20056;-65
2023/09/02 11:48:59;;;;;;;3.03;2.00;;;;;;;21.57;81.76;101885.03;21119083;28;20058;-65
2023/09/02 11:59:01;;;;;;;4.03;2.10;;;;;;;21.59;81.43;101887.63;21115068;28;20048;-66
2023/09/02 12:09:03;;;;;;;2.47;1.83;;;;;;;21.59;81.31;101895.75;21115673;28;20179;-65
2023/09/02 12:19:04;;;;;;;3.03;2.05;;;;;;;21.61;80.91;101885.63;21111849;28;20496;-65
2023/09/02 12:29:16;;;;;;;2.25;2.05;;;;;;;21.64;80.80;101885.38;21117062;28;20101;-65
2023/09/02 12:39:25;;;;;;;2.07;1.87;;;;;;;21.62;80.80;101878.34;21067704;28;20173;-65
2023/09/02 12:49:26;;;;;;;3.28;2.30;;;;;;;21.64;80.82;101879.97;21096276;28;20059;-65
2023/09/02 12:59:28;;;;;;;2.38;1.73;;;;;;;21.61;80.54;101874.78;21102119;28;20464;-65
2023/09/02 13:09:30;;;;;;;2.33;1.90;;;;;;;21.65;80.74;101870.84;21092292;28;20059;-66
2023/09/02 13:19:32;;;;;;;3.70;2.40;;;;;;;21.64;80.66;101863.69;21083144;28;20044;-65
2023/09/02 13:29:34;;;;;;;3.38;2.25;;;;;;;21.67;80.68;101865.28;21053610;28;20622;-65
2023/09/02 13:39:36;;;;;;;2.53;2.20;;;;;;;21.66;81.13;101867.13;21088682;28;20061;-65
2023/09/02 13:49:40;;;;;;;2.70;2.15;;;;;;;21.70;81.47;101867.72;21088415;28;20097;-66
2023/09/02 13:59:42;;;;;;;;;;;;;;;21.75;81.66;101867.28;21084169;28;20098;-67
2023/09/02 14:09:44;;;;;;;2.63;2.05;;;;;;;21.76;82.15;101864.47;21096554;28;20005;-67
2023/09/02 14:19:46;;;;;;;5.05;2.10;;;;;;;21.76;82.14;101861.75;21081281;28;20446;-68
2023/09/02 14:29:52;;;;;;;3.80;2.42;;;;;;;21.82;82.67;101865.72;21088346;28;20087;-69
2023/09/02 14:39:54;;;;;;;3.63;1.90;;;;;;;21.84;82.75;101870.03;21104973;28;20407;-69
2023/09/02 14:49:55;;;;;;;4.82;2.50;;;;;;;21.85;82.96;101882.59;21105544;28;20051;-69
2023/09/02 14:59:59;;;;;;;3.17;2.15;;;;;;;21.86;83.75;101897.84;21096908;28;20396;-61
2023/09/02 15:10:03;;;;;;;4.37;2.23;;;;;;;21.83;84.08;101900.84;21100704;28;20048;-62
2023/09/02 15:20:08;;;;;;;8.13;2.20;;;;;;;21.82;84.96;101904.56;21080565;28;20048;-62
2023/09/02 15:30:10;;;;;;;3.00;2.10;;;;;;;21.87;86.56;101932.09;21066902;28;20048;-65
2023/09/02 15:40:12;;;;;;;4.90;2.20;;;;;;;21.92;87.78;101930.81;21072098;28;20179;-68
2023/09/02 15:50:13;;;;;;;24.98;8.35;;;;;;;22.04;93.46;101950.56;21093204;28;20051;-68
2023/09/02 16:00:15;;;;;;;20.95;6.45;;;;;;;22.19;95.00;101961.88;21087207;27;20056;-69
2023/09/02 16:10:17;;;;;;;17.08;6.22;;;;;;;22.30;94.44;101976.16;21058782;28;20052;-68
2023/09/02 16:20:19;;;;;;;14.25;5.07;;;;;;;22.27;93.76;101983.72;21100837;28;20043;-75
2023/09/02 16:30:22;;;;;;;15.98;4.97;;;;;;;22.16;94.02;101981.97;21098977;28;20046;-75
2023/09/02 16:40:27;;;;;;;11.45;4.18;;;;;;;22.09;92.55;101992.53;21098732;28;20063;-74
2023/09/02 16:50:28;;;;;;;7.50;3.50;;;;;;;22.04;92.16;102000.22;21093694;28;20047;-75
2023/09/02 17:00:33;;;;;;;7.68;3.03;;;;;;;22.02;91.78;102008.50;21106400;28;20036;-77
2023/09/02 17:10:35;;;;;;;6.87;3.53;;;;;;;21.99;91.63;102007.91;21087461;28;20059;-76
2023/09/02 17:20:39;;;;;;;5.38;2.35;;;;;;;21.94;90.93;102012.88;21078834;28;20078;-76
2023/09/02 17:30:41;;;;;;;3.90;2.20;;;;;;;21.88;89.88;102022.44;21105120;28;20133;-73
2023/09/02 17:40:43;;;;;;;3.38;1.88;;;;;;;21.84;89.07;102031.81;21080903;28;20047;-73
2023/09/02 17:50:45;;;;;;;4.38;2.35;;;;;;;21.81;88.19;102024.81;21062112;28;20488;-73
2023/09/02 18:00:47;;;;;;;3.75;2.17;;;;;;;21.78;87.69;102033.22;21062014;28;20048;-73
2023/09/02 18:10:48;;;;;;;2.97;1.80;;;;;;;21.76;87.02;102039.75;21086373;28;20052;-73
2023/09/02 18:20:50;;;;;;;1.92;1.58;;;;;;;21.72;86.56;102048.16;21087054;28;20670;-73
2023/09/02 18:30:52;;;;;;;4.30;1.98;;;;;;;21.66;86.08;102062.25;21086484;28;20052;-73
2023/09/02 18:40:54;;;;;;;3.38;1.77;;;;;;;21.58;85.47;102068.28;21085981;28;20074;-73
2023/09/02 18:50:56;;;;;;;2.80;1.65;;;;;;;21.53;85.45;102094.91;21084835;28;20075;-73
2023/09/02 19:00:58;;;;;;;3.38;1.70;;;;;;;21.50;85.64;102103.31;21083155;28;20044;-73
2023/09/02 19:11:00;;;;;;;4.22;1.80;;;;;;;21.47;85.48;102106.28;21082291;28;20551;-73
2023/09/02 19:21:02;;;;;;;3.85;2.00;;;;;;;21.47;86.91;102106.28;21082452;28;20055;-73
2023/09/02 19:31:04;;;;;;;3.58;1.40;;;;;;;21.49;88.10;102098.88;21080117;28;20054;-73
2023/09/02 19:41:08;;;;;;;3.13;1.60;;;;;;;21.44;88.04;102117.38;21081190;28;20073;-73
2023/09/02 19:51:13;;;;;;;2.77;1.50;;;;;;;21.45;87.58;102151.63;21080489;28;20052;-73
2023/09/02 20:01:15;;;;;;;3.03;1.60;;;;;;;21.42;87.25;102162.72;21078638;28;20468;-73
2023/09/02 20:11:17;;;;;;;2.00;1.33;;;;;;;21.39;86.60;102179.22;21078626;28;20109;-73
2023/09/02 20:21:21;;;;;;;2.90;1.40;;;;;;;21.35;86.40;102180.47;21076725;28;20565;-73
2023/09/02 20:31:22;;;;;;;1.53;1.30;;;;;;;21.33;85.87;102177.88;21077081;28;20052;-73
2023/09/02 20:41:24;;;;;;;2.08;1.20;;;;;;;21.30;85.52;102179.00;21076329;28;20491;-73
2023/09/02 20:51:27;;;;;;;1.55;0.88;;;;;;;21.30;85.54;102176.31;21048083;28;20060;-73
2023/09/02 21:01:31;;;;;;;1.20;0.90;;;;;;;21.30;85.57;102203.41;20990386;28;20090;-73
2023/09/02 21:11:33;;;;;;;2.08;1.20;;;;;;;21.31;85.20;102209.66;20990635;28;20106;-73
2023/09/02 21:21:35;;;;;;;1.38;0.88;;;;;;;21.29;84.79;102234.19;20989375;28;20045;-73
2023/09/02 21:31:37;;;;;;;1.17;0.80;;;;;;;21.28;84.48;102239.69;20989035;28;20056;-73
2023/09/02 21:41:38;;;;;;;1.30;0.90;;;;;;;21.26;84.15;102250.69;20988275;28;20057;-73
2023/09/02 21:51:40;;;;;;;0.80;0.68;;;;;;;21.25;83.87;102248.09;20986167;28;20501;-73
2023/09/02 22:01:42;;;;;;;1.30;0.90;;;;;;;21.22;83.56;102254.63;20988457;28;20369;-73
2023/09/02 22:11:44;;;;;;;0.80;0.70;;;;;;;21.20;83.04;102267.41;20987102;28;20092;-73
2023/09/02 22:21:46;;;;;;;1.17;0.93;;;;;;;21.14;82.60;102243.53;20986668;28;20048;-73
2023/09/02 22:31:48;;;;;;;1.65;0.80;;;;;;;21.18;82.22;102257.69;20987594;28;20056;-73
2023/09/02 22:41:50;;;;;;;1.30;0.82;;;;;;;21.15;81.89;102265.09;20989270;28;20052;-73
2023/09/02 22:51:52;;;;;;;1.35;0.80;;;;;;;21.11;81.45;102249.22;21000266;28;20047;-73
2023/09/02 23:01:53;;;;;;;1.35;0.80;;;;;;;21.13;81.27;102266.19;21000421;28;20102;-73
2023/09/02 23:11:55;;;;;;;0.60;0.60;;;;;;;21.08;80.76;102263.00;20999199;28;20732;-73
2023/09/02 23:21:57;;;;;;;0.60;0.60;;;;;;;21.10;80.66;102275.44;20999015;28;20057;-73
2023/09/02 23:31:59;;;;;;;0.93;0.82;;;;;;;21.02;79.78;102275.19;21025692;28;20059;-74
2023/09/02 23:42:01;;;;;;;1.73;0.90;;;;;;;20.97;79.51;102299.94;21080072;28;20423;-73
2023/09/02 23:52:03;;;;;;;1.08;0.98;;;;;;;20.93;79.15;102309.28;21079550;28;20056;-73
